Time;durP1;ratioP1;P1;durP2;ratioP2;P2;SDS_P1;SDS_P2;PMS_P1;PMS_P2;Temp;Humidity;BMP_temperature;BMP_pressure;BME280_temperature;BME280_humidity;BME280_pressure;Samples;Min_cycle;Max_cycle;Signal;HPM_P1;HPM_P2
2021/08/11 00:00:36;;;;;;;25.93;24.43;;;19.30;83.40;;;;;;5126535;27;20859;-75
2021/08/11 00:03:03;;;;;;;26.33;24.67;;;19.30;83.60;;;;;;5125855;27;20477;-75
2021/08/11 00:05:30;;;;;;;25.83;24.33;;;19.30;83.70;;;;;;5116626;27;20538;-75
2021/08/11 00:07:58;;;;;;;25.47;23.87;;;19.20;83.80;;;;;;5127287;27;20475;-75
2021/08/11 00:10:25;;;;;;;26.50;24.90;;;19.20;84.00;;;;;;5128548;28;20554;-75
2021/08/11 00:12:52;;;;;;;25.50;24.10;;;19.20;84.10;;;;;;5128235;28;20978;-75
2021/08/11 00:15:19;;;;;;;25.77;24.30;;;19.10;84.30;;;;;;5122781;28;20982;-75
2021/08/11 00:17:46;;;;;;;26.47;24.73;;;19.10;84.50;;;;;;5118941;28;20559;-75
2021/08/11 00:20:13;;;;;;;26.20;24.40;;;19.10;84.60;;;;;;5128069;28;20451;-75
2021/08/11 00:22:40;;;;;;;26.13;24.40;;;19.10;84.80;;;;;;5122828;28;20459;-75
2021/08/11 00:25:09;;;;;;;26.37;24.67;;;19.10;84.70;;;;;;5128254;28;20447;-75
2021/08/11 00:27:36;;;;;;;25.40;23.90;;;19.10;84.50;;;;;;5127963;28;20471;-75
2021/08/11 00:30:04;;;;;;;25.80;24.30;;;19.10;84.40;;;;;;5127158;28;20455;-75
2021/08/11 00:32:31;;;;;;;25.70;24.10;;;19.10;84.30;;;;;;5123927;28;20472;-74
2021/08/11 00:34:58;;;;;;;26.13;24.37;;;19.00;84.40;;;;;;5127517;28;20510;-74
2021/08/11 00:37:25;;;;;;;25.77;24.27;;;19.00;84.60;;;;;;5128375;28;21000;-73
2021/08/11 00:39:52;;;;;;;26.10;24.60;;;19.00;84.40;;;;;;5124014;28;20489;-73
2021/08/11 00:42:20;;;;;;;25.57;23.60;;;19.00;84.50;;;;;;5128568;28;20458;-74
2021/08/11 00:44:47;;;;;;;25.70;24.10;;;19.00;84.60;;;;;;5127896;28;20980;-74
2021/08/11 00:47:15;;;;;;;24.80;23.30;;;19.00;84.90;;;;;;5127060;28;20480;-74
2021/08/11 00:49:43;;;;;;;25.00;23.60;;;18.90;85.00;;;;;;5126775;28;20466;-73
2021/08/11 00:52:10;;;;;;;25.90;24.40;;;18.90;85.00;;;;;;5127393;28;20988;-73
2021/08/11 00:54:38;;;;;;;26.73;25.07;;;18.90;85.00;;;;;;5127531;28;20451;-73
2021/08/11 00:57:05;;;;;;;25.63;24.27;;;18.90;85.00;;;;;;5124009;28;20468;-73
2021/08/11 00:59:38;;;;;;;26.03;24.40;;;18.90;85.00;;;;;;5127283;28;20976;-74
2021/08/11 01:02:07;;;;;;;25.70;24.30;;;18.90;85.10;;;;;;5126066;28;20775;-73
2021/08/11 01:04:35;;;;;;;26.20;24.80;;;18.90;85.10;;;;;;5128463;28;20452;-73
2021/08/11 01:07:03;;;;;;;26.30;24.70;;;18.90;85.00;;;;;;5119534;28;20475;-73
2021/08/11 01:09:32;;;;;;;25.50;24.00;;;18.90;85.00;;;;;;5122247;28;20456;-74
2021/08/11 01:11:59;;;;;;;26.77;25.07;;;18.80;85.10;;;;;;5122672;28;20476;-74
2021/08/11 01:14:27;;;;;;;25.93;24.33;;;18.80;85.10;;;;;;5128627;27;20456;-74
2021/08/11 01:16:55;;;;;;;26.93;25.23;;;18.90;85.00;;;;;;5120149;27;21072;-74
2021/08/11 01:19:22;;;;;;;26.23;24.50;;;18.90;84.90;;;;;;5126236;27;20457;-74
2021/08/11 01:21:54;;;;;;;26.20;24.60;;;18.90;84.70;;;;;;5128381;27;20551;-74
2021/08/11 01:24:28;;;;;;;26.07;24.47;;;18.90;84.60;;;;;;5127328;27;20459;-74
2021/08/11 01:27:07;;;;;;;26.40;24.80;;;18.90;84.80;;;;;;5126830;27;20482;-74
2021/08/11 01:29:58;;;;;;;25.67;24.10;;;18.80;85.00;;;;;;5124107;27;20459;-74
2021/08/11 01:32:42;;;;;;;26.47;24.80;;;18.90;84.90;;;;;;5119387;27;21017;-74
2021/08/11 01:35:14;;;;;;;27.47;25.37;;;18.90;84.60;;;;;;5120031;27;20552;-74
2021/08/11 01:37:42;;;;;;;26.70;25.20;;;18.90;84.60;;;;;;5126846;27;20514;-74
2021/08/11 01:40:12;;;;;;;25.07;23.77;;;18.90;84.50;;;;;;5129856;27;21021;-74
2021/08/11 01:42:43;;;;;;;25.50;24.10;;;18.90;84.50;;;;;;5131613;27;20488;-74
2021/08/11 01:45:14;;;;;;;26.30;24.80;;;18.90;84.50;;;;;;5129665;27;20460;-74
2021/08/11 01:47:44;;;;;;;25.40;23.90;;;18.90;84.60;;;;;;5129439;27;20486;-74
2021/08/11 01:50:16;;;;;;;25.73;24.23;;;18.80;84.60;;;;;;5124995;27;20458;-74
2021/08/11 01:52:44;;;;;;;26.17;24.67;;;18.80;84.70;;;;;;5130725;27;20562;-74
2021/08/11 01:55:13;;;;;;;26.17;24.67;;;18.80;84.60;;;;;;5126393;27;20455;-74
2021/08/11 01:57:44;;;;;;;26.60;25.00;;;18.80;84.60;;;;;;5130566;27;20482;-74
2021/08/11 02:00:13;;;;;;;26.43;24.90;;;18.70;84.70;;;;;;5125365;27;20456;-74
2021/08/11 02:02:42;;;;;;;26.10;24.40;;;18.70;84.80;;;;;;5129934;27;20550;-74
2021/08/11 02:05:10;;;;;;;27.30;25.30;;;18.70;84.70;;;;;;5125242;27;20458;-74
2021/08/11 02:07:39;;;;;;;26.53;24.70;;;18.70;84.90;;;;;;5130741;27;20479;-74
2021/08/11 02:10:07;;;;;;;28.00;26.27;;;18.70;84.90;;;;;;5129830;27;20566;-74
2021/08/11 02:12:35;;;;;;;25.17;23.80;;;18.70;84.90;;;;;;5131090;27;20475;-74
2021/08/11 02:15:02;;;;;;;25.63;24.23;;;18.70;84.90;;;;;;5131569;27;20452;-74
2021/08/11 02:17:30;;;;;;;25.80;24.40;;;18.60;84.90;;;;;;5120841;27;21102;-74
2021/08/11 02:19:57;;;;;;;25.70;24.03;;;18.60;84.90;;;;;;5123043;27;20447;-74
2021/08/11 02:22:24;;;;;;;28.33;26.60;;;18.60;85.10;;;;;;5129914;27;20468;-74
2021/08/11 02:24:53;;;;;;;25.63;24.10;;;18.60;85.20;;;;;;5121335;27;20448;-74
2021/08/11 02:27:22;;;;;;;25.67;24.10;;;18.60;85.30;;;;;;5115992;27;20468;-74
2021/08/11 02:29:51;;;;;;;25.10;23.30;;;18.60;85.20;;;;;;5129978;27;20447;-74
2021/08/11 02:32:23;;;;;;;24.83;23.43;;;18.50;85.30;;;;;;5125482;27;20476;-74
2021/08/11 02:34:59;;;;;;;24.70;23.20;;;18.50;85.40;;;;;;5121266;27;20456;-74
2021/08/11 02:37:31;;;;;;;28.40;26.80;;;18.50;85.70;;;;;;5125557;27;20478;-74
2021/08/11 02:40:04;;;;;;;25.43;23.93;;;18.50;85.40;;;;;;5129459;27;20449;-74
2021/08/11 02:42:37;;;;;;;25.93;24.20;;;18.40;85.70;;;;;;5115734;27;20671;-74
2021/08/11 02:45:06;;;;;;;25.57;24.07;;;18.30;86.10;;;;;;5128501;27;20451;-74
2021/08/11 02:47:36;;;;;;;25.50;24.00;;;18.30;86.20;;;;;;5128204;27;20559;-74
2021/08/11 02:50:03;;;;;;;24.90;23.40;;;18.30;86.20;;;;;;5127709;27;20708;-74
2021/08/11 02:52:32;;;;;;;26.13;24.73;;;18.30;86.20;;;;;;5128679;27;20506;-74
2021/08/11 02:55:01;;;;;;;26.60;24.80;;;18.30;86.10;;;;;;5129581;27;20448;-74
2021/08/11 02:57:28;;;;;;;25.63;23.80;;;18.30;86.00;;;;;;5122248;27;20486;-74
2021/08/11 02:59:57;;;;;;;25.20;23.63;;;18.30;85.90;;;;;;5127788;27;20542;-74
2021/08/11 03:02:25;;;;;;;25.13;23.63;;;18.30;86.00;;;;;;5126558;27;20825;-74
2021/08/11 03:04:53;;;;;;;25.77;24.20;;;18.20;86.20;;;;;;5122348;27;20459;-74
2021/08/11 03:07:20;;;;;;;25.97;24.27;;;18.20;86.20;;;;;;5127081;27;20810;-74
2021/08/11 03:09:47;;;;;;;30.27;28.23;;;18.20;86.30;;;;;;5129599;27;20459;-74
2021/08/11 03:12:16;;;;;;;25.77;23.93;;;18.20;86.50;;;;;;5127193;27;20483;-74
2021/08/11 03:14:45;;;;;;;24.40;23.10;;;18.20;86.30;;;;;;5129029;27;20462;-74
2021/08/11 03:17:13;;;;;;;28.80;27.10;;;18.20;86.30;;;;;;5127254;27;20996;-74
2021/08/11 03:19:40;;;;;;;29.33;27.53;;;18.10;86.40;;;;;;5122280;27;20830;-74
2021/08/11 03:22:10;;;;;;;24.67;23.23;;;18.10;86.30;;;;;;5127939;27;20477;-74
2021/08/11 03:24:37;;;;;;;26.03;24.30;;;18.10;86.50;;;;;;5128961;27;20443;-74
2021/08/11 03:27:04;;;;;;;23.93;22.37;;;18.10;86.50;;;;;;5122075;27;20845;-74
2021/08/11 03:29:33;;;;;;;25.47;23.87;;;18.00;86.90;;;;;;5129361;27;20539;-74
2021/08/11 03:31:59;;;;;;;26.63;25.10;;;18.00;86.90;;;;;;5122302;27;20477;-74
2021/08/11 03:34:28;;;;;;;30.87;28.90;;;17.90;86.90;;;;;;5116533;27;20452;-74
2021/08/11 03:36:55;;;;;;;26.57;24.53;;;17.90;87.00;;;;;;5122133;27;20475;-74
2021/08/11 03:39:22;;;;;;;26.03;24.07;;;17.90;87.20;;;;;;5129301;27;20459;-74
2021/08/11 03:41:48;;;;;;;26.07;24.03;;;17.80;87.20;;;;;;5124215;27;20539;-74
2021/08/11 03:44:15;;;;;;;25.37;23.67;;;17.80;87.50;;;;;;5127576;27;20451;-74
2021/08/11 03:46:43;;;;;;;28.43;26.70;;;17.80;87.40;;;;;;5127880;27;20566;-74
2021/08/11 03:49:10;;;;;;;25.70;24.10;;;17.80;87.60;;;;;;5120550;27;21143;-74
2021/08/11 03:51:37;;;;;;;25.00;23.40;;;17.80;87.50;;;;;;5126074;27;20954;-74
2021/08/11 03:54:04;;;;;;;27.20;25.47;;;17.80;87.60;;;;;;5119133;27;20891;-74
2021/08/11 03:56:31;;;;;;;28.33;26.43;;;17.80;87.60;;;;;;5125893;27;20473;-74
2021/08/11 03:58:58;;;;;;;28.57;26.70;;;17.70;87.80;;;;;;5127210;27;20547;-74
2021/08/11 04:01:25;;;;;;;25.23;23.70;;;17.80;87.60;;;;;;5124722;27;20534;-74
2021/08/11 04:03:53;;;;;;;25.10;23.40;;;17.80;87.60;;;;;;5119351;27;20458;-74
2021/08/11 04:06:20;;;;;;;25.40;23.90;;;17.70;87.80;;;;;;5127519;27;20547;-74
2021/08/11 04:08:47;;;;;;;26.07;24.47;;;17.70;87.80;;;;;;5122855;27;20949;-74
2021/08/11 04:11:14;;;;;;;26.03;24.53;;;17.80;87.80;;;;;;5128527;28;20455;-73
2021/08/11 04:13:41;;;;;;;26.60;24.47;;;17.70;87.80;;;;;;5127818;28;20482;-74
2021/08/11 04:16:07;;;;;;;27.17;25.37;;;17.70;87.80;;;;;;5116266;28;21012;-74
2021/08/11 04:18:34;;;;;;;26.00;24.20;;;17.70;88.00;;;;;;5127586;28;20465;-74
2021/08/11 04:21:03;;;;;;;24.47;22.73;;;17.70;87.80;;;;;;5125584;28;20471;-74
2021/08/11 04:23:29;;;;;;;26.17;24.33;;;17.80;87.70;;;;;;5126604;28;20450;-74
2021/08/11 04:25:57;;;;;;;29.03;27.30;;;17.80;87.50;;;;;;5125143;28;20455;-74
2021/08/11 04:28:25;;;;;;;26.80;25.20;;;17.80;87.70;;;;;;5119743;27;21034;-74
2021/08/11 04:30:52;;;;;;;26.50;24.90;;;17.80;87.50;;;;;;5127483;28;20883;-74
2021/08/11 04:33:19;;;;;;;30.60;28.57;;;17.80;87.60;;;;;;5118559;28;20965;-74
2021/08/11 04:35:46;;;;;;;28.60;26.90;;;17.80;87.70;;;;;;5126333;28;20875;-74
2021/08/11 04:38:16;;;;;;;26.67;25.00;;;17.80;87.50;;;;;;5128427;28;20467;-74
2021/08/11 04:40:43;;;;;;;28.80;27.03;;;17.80;87.40;;;;;;5127616;28;20554;-74
2021/08/11 04:43:10;;;;;;;25.87;24.37;;;17.90;87.30;;;;;;5125113;28;20550;-74
2021/08/11 04:45:37;;;;;;;28.53;26.87;;;17.90;87.30;;;;;;5128203;28;20980;-80
2021/08/11 04:48:05;;;;;;;26.60;24.80;;;17.90;87.30;;;;;;5127320;28;20471;-73
2021/08/11 04:50:32;;;;;;;30.37;28.67;;;17.90;87.30;;;;;;5120656;27;20447;-74
2021/08/11 04:52:59;;;;;;;28.97;27.03;;;17.90;87.20;;;;;;5130294;27;20471;-74
2021/08/11 04:55:27;;;;;;;26.70;24.90;;;18.00;87.10;;;;;;5131900;27;20487;-73
2021/08/11 04:57:54;;;;;;;26.63;25.03;;;18.10;86.80;;;;;;5130208;27;20479;-74
2021/08/11 05:00:21;;;;;;;27.63;25.93;;;18.10;86.50;;;;;;5131984;27;20550;-74
2021/08/11 05:02:48;;;;;;;27.87;26.27;;;18.10;86.50;;;;;;5130287;27;20454;-73
2021/08/11 05:05:15;;;;;;;26.37;24.87;;;18.20;86.40;;;;;;5129603;27;20547;-75
2021/08/11 05:07:42;;;;;;;28.20;26.50;;;18.20;86.20;;;;;;5125127;27;20493;-74
2021/08/11 05:10:10;;;;;;;25.93;24.13;;;18.20;86.30;;;;;;5130191;27;20474;-74
2021/08/11 05:12:38;;;;;;;27.27;25.37;;;18.30;86.40;;;;;;5129857;27;20483;-75
2021/08/11 05:15:07;;;;;;;27.27;25.57;;;18.40;85.90;;;;;;5131491;27;20956;-75
2021/08/11 05:17:34;;;;;;;28.77;27.00;;;18.40;85.60;;;;;;5126459;27;20481;-76
2021/08/11 05:20:01;;;;;;;25.70;23.90;;;18.40;85.90;;;;;;5128508;27;20506;-76
2021/08/11 05:22:28;;;;;;;26.27;24.60;;;18.50;85.60;;;;;;5131125;27;20852;-75
2021/08/11 05:24:55;;;;;;;27.53;25.83;;;18.60;85.40;;;;;;5130414;27;20488;-76
2021/08/11 05:27:22;;;;;;;26.33;24.63;;;18.70;85.10;;;;;;5128238;27;20498;-76
2021/08/11 05:29:50;;;;;;;26.80;25.30;;;18.80;84.90;;;;;;5129097;27;20489;-75
2021/08/11 05:32:17;;;;;;;30.17;28.27;;;18.80;84.90;;;;;;5112328;27;20984;-75
2021/08/11 05:34:45;;;;;;;29.93;27.47;;;18.90;84.60;;;;;;5130240;27;20818;-75
2021/08/11 05:37:12;;;;;;;31.63;29.50;;;19.00;84.10;;;;;;5125771;27;20511;-76
2021/08/11 05:39:39;;;;;;;30.23;28.70;;;19.10;84.00;;;;;;5126253;27;20489;-76
2021/08/11 05:42:06;;;;;;;28.40;26.60;;;19.30;83.40;;;;;;5128606;27;20467;-77
2021/08/11 05:44:34;;;;;;;30.20;28.23;;;19.40;83.10;;;;;;5129776;27;20482;-77
2021/08/11 05:47:04;;;;;;;32.70;30.57;;;19.40;82.90;;;;;;5127981;27;20479;-78
2021/08/11 05:49:32;;;;;;;33.87;32.00;;;19.60;82.60;;;;;;5122001;27;20539;-76
2021/08/11 05:51:59;;;;;;;29.50;27.70;;;19.70;81.90;;;;;;5127610;27;20474;-76
2021/08/11 05:54:25;;;;;;;34.17;32.10;;;19.80;81.80;;;;;;5131780;27;20482;-75
2021/08/11 05:56:52;;;;;;;31.27;29.37;;;19.90;81.60;;;;;;5124381;27;20471;-74
2021/08/11 05:59:19;;;;;;;33.47;31.27;;;20.00;81.50;;;;;;5127256;27;20532;-76
2021/08/11 06:01:47;;;;;;;32.87;30.70;;;20.10;81.00;;;;;;5130690;27;20533;-76
2021/08/11 06:04:15;;;;;;;31.43;29.33;;;20.30;80.50;;;;;;5119692;27;20455;-76
2021/08/11 06:06:42;;;;;;;32.23;30.30;;;20.40;80.30;;;;;;5127668;27;20853;-75
2021/08/11 06:09:09;;;;;;;32.37;30.00;;;20.60;79.80;;;;;;5136466;27;20483;-76
2021/08/11 06:11:36;;;;;;;30.03;28.23;;;20.70;79.30;;;;;;5124724;27;20462;-77
2021/08/11 06:14:03;;;;;;;29.40;27.20;;;20.90;78.90;;;;;;5129557;27;20954;-76
2021/08/11 06:16:30;;;;;;;30.53;28.73;;;21.00;78.60;;;;;;5128492;27;20480;-77
2021/08/11 06:18:58;;;;;;;30.70;28.47;;;21.10;78.30;;;;;;5126539;27;20964;-77
2021/08/11 06:21:27;;;;;;;30.57;28.57;;;21.30;78.10;;;;;;5126273;27;20551;-77
2021/08/11 06:23:54;;;;;;;31.13;29.10;;;21.40;77.50;;;;;;5131308;27;20535;-77
2021/08/11 06:26:22;;;;;;;30.17;28.27;;;21.50;77.30;;;;;;5126034;27;20490;-77
2021/08/11 06:28:49;;;;;;;31.37;29.33;;;21.70;76.70;;;;;;5125221;27;20538;-76
2021/08/11 06:31:18;;;;;;;32.77;30.63;;;21.80;76.20;;;;;;5121486;27;20543;-77
2021/08/11 06:33:45;;;;;;;33.07;30.80;;;21.90;75.90;;;;;;5121740;27;20476;-77
2021/08/11 06:36:12;;;;;;;30.87;28.97;;;22.00;75.60;;;;;;5122006;27;20452;-76
2021/08/11 06:38:41;;;;;;;30.30;28.40;;;22.10;75.20;;;;;;5118182;27;20473;-75
2021/08/11 06:41:08;;;;;;;31.53;29.50;;;22.30;74.50;;;;;;5121326;27;20453;-76
2021/08/11 06:43:35;;;;;;;32.57;30.63;;;22.40;74.20;;;;;;5125404;27;20539;-78
2021/08/11 06:46:02;;;;;;;34.47;32.23;;;22.40;73.90;;;;;;5131900;27;20891;-76
2021/08/11 06:48:29;;;;;;;31.23;29.43;;;22.50;73.50;;;;;;5130542;27;20475;-77
2021/08/11 06:50:56;;;;;;;33.70;31.27;;;22.40;73.70;;;;;;5133451;27;20461;-79
2021/08/11 06:53:23;;;;;;;30.43;28.60;;;22.30;74.00;;;;;;5128411;27;20539;-75
2021/08/11 06:55:51;;;;;;;30.97;29.10;;;22.30;74.30;;;;;;5123506;27;20543;-76
2021/08/11 06:58:18;;;;;;;31.30;29.40;;;22.40;74.40;;;;;;5128774;27;20475;-76
2021/08/11 07:00:45;;;;;;;32.07;30.00;;;22.40;74.60;;;;;;5131631;27;20542;-76
2021/08/11 07:03:12;;;;;;;32.67;30.53;;;22.50;74.40;;;;;;5130568;27;20454;-76
2021/08/11 07:05:39;;;;;;;34.10;31.80;;;22.60;74.00;;;;;;5131623;27;20473;-76
2021/08/11 07:08:06;;;;;;;30.90;28.90;;;22.70;73.90;;;;;;5129724;27;20574;-75
2021/08/11 07:10:33;;;;;;;31.17;29.37;;;22.80;73.70;;;;;;5131530;27;21181;-76
2021/08/11 07:13:02;;;;;;;31.67;29.77;;;22.90;73.00;;;;;;5120091;27;20519;-75
2021/08/11 07:15:29;;;;;;;35.33;32.63;;;23.00;72.40;;;;;;5125548;27;20612;-75
2021/08/11 07:17:57;;;;;;;33.53;31.43;;;22.90;72.30;;;;;;5130208;27;20475;-76
2021/08/11 07:20:27;;;;;;;32.50;30.47;;;22.90;72.10;;;;;;5117884;27;20459;-75
2021/08/11 07:22:55;;;;;;;34.03;31.90;;;22.90;72.30;;;;;;5130760;27;20790;-75
2021/08/11 07:25:22;;;;;;;31.40;29.60;;;23.00;72.30;;;;;;5129371;27;20833;-75
2021/08/11 07:27:49;;;;;;;40.23;37.33;;;22.90;72.00;;;;;;5130027;27;20475;-76
2021/08/11 07:30:18;;;;;;;30.63;28.63;;;22.90;72.30;;;;;;5131019;27;20459;-76
2021/08/11 07:32:45;;;;;;;34.08;31.48;;;23.10;71.90;;;;;;5125827;27;20542;-76
2021/08/11 07:35:13;;;;;;;60.27;51.30;;;23.20;71.70;;;;;;5113222;27;20224;-76
2021/08/11 07:37:48;;;;;;;41.67;38.37;;;23.30;71.60;;;;;;5128930;27;20479;-76
2021/08/11 07:40:15;;;;;;;32.90;30.83;;;23.60;70.60;;;;;;5130987;27;20479;-76
2021/08/11 07:42:43;;;;;;;34.45;32.05;;;23.60;70.20;;;;;;5130045;27;20569;-76
2021/08/11 07:45:12;;;;;;;34.20;32.03;;;23.60;70.30;;;;;;5130742;27;20201;-76
2021/08/11 07:47:41;;;;;;;33.70;31.47;;;23.70;69.80;;;;;;5124593;27;20892;-79
2021/08/11 07:50:10;;;;;;;32.43;30.43;;;23.80;69.30;;;;;;5121021;27;20455;-76
2021/08/11 07:52:37;;;;;;;31.93;29.47;;;23.90;68.60;;;;;;5128975;27;20483;-77
2021/08/11 07:55:10;;;;;;;32.93;30.83;;;23.90;68.30;;;;;;5130302;27;20485;-76
2021/08/11 07:57:41;;;;;;;33.07;31.07;;;23.90;68.30;;;;;;5129930;27;20486;-76
2021/08/11 08:00:11;;;;;;;33.63;31.27;;;23.90;68.10;;;;;;5129429;27;20816;-77
2021/08/11 08:02:38;;;;;;;32.57;30.17;;;24.00;67.90;;;;;;5126163;27;20539;-77
2021/08/11 08:05:08;;;;;;;30.67;28.87;;;24.00;68.00;;;;;;5129134;27;20538;-77
2021/08/11 08:07:35;;;;;;;31.90;29.90;;;24.10;68.00;;;;;;5129536;27;20486;-76
2021/08/11 08:10:02;;;;;;;32.50;30.20;;;24.20;67.70;;;;;;5130601;27;20455;-75
2021/08/11 08:12:30;;;;;;;33.87;32.00;;;24.30;67.50;;;;;;5128859;28;20459;-72
2021/08/11 08:14:56;;;;;;;33.10;31.20;;;24.30;67.20;;;;;;5129851;28;20477;-71
2021/08/11 08:17:23;;;;;;;33.07;31.27;;;24.40;67.20;;;;;;5130063;28;21160;-74
2021/08/11 08:19:54;;;;;;;32.57;30.57;;;24.40;67.30;;;;;;5130183;28;20462;-72
2021/08/11 08:22:25;;;;;;;33.70;31.23;;;24.50;67.10;;;;;;5123764;28;20540;-75
2021/08/11 08:24:55;;;;;;;30.73;28.83;;;24.60;66.70;;;;;;5132071;27;20443;-73
2021/08/11 08:27:23;;;;;;;31.67;29.87;;;24.60;66.70;;;;;;5134380;27;20478;-72
2021/08/11 08:29:50;;;;;;;33.73;31.63;;;24.80;66.60;;;;;;5134694;27;20443;-73
2021/08/11 08:32:17;;;;;;;31.20;29.50;;;24.80;66.60;;;;;;5133804;27;20452;-72
2021/08/11 08:34:44;;;;;;;34.83;32.77;;;24.90;66.50;;;;;;5120203;27;20511;-73
2021/08/11 08:37:11;;;;;;;34.53;32.33;;;25.00;66.40;;;;;;5119083;27;20854;-73
2021/08/11 08:39:39;;;;;;;31.73;29.93;;;25.00;66.50;;;;;;5127873;27;20995;-72
2021/08/11 08:42:06;;;;;;;34.77;32.47;;;25.10;66.50;;;;;;5132939;27;20582;-73
2021/08/11 08:44:36;;;;;;;33.50;31.33;;;25.10;66.30;;;;;;5123992;27;20465;-73
2021/08/11 08:47:03;;;;;;;33.80;31.70;;;25.20;66.00;;;;;;5120433;27;20984;-74
2021/08/11 08:49:30;;;;;;;34.23;31.77;;;25.30;66.10;;;;;;5127658;27;20464;-73
2021/08/11 08:51:57;;;;;;;34.57;32.40;;;25.30;66.10;;;;;;5131358;27;20451;-72
2021/08/11 08:54:26;;;;;;;34.20;32.10;;;25.40;65.90;;;;;;5123188;27;20517;-72
2021/08/11 08:56:54;;;;;;;34.43;32.53;;;25.40;65.70;;;;;;5131742;27;20816;-73
2021/08/11 08:59:21;;;;;;;35.77;33.80;;;25.50;65.40;;;;;;5132134;27;20546;-71
2021/08/11 09:01:48;;;;;;;32.20;30.30;;;25.50;65.30;;;;;;5132222;27;20838;-71
2021/08/11 09:04:15;;;;;;;34.03;32.03;;;25.60;65.40;;;;;;5131826;27;20943;-72
2021/08/11 09:06:41;;;;;;;36.00;33.80;;;25.70;65.10;;;;;;5127476;27;20996;-71
2021/08/11 09:09:10;;;;;;;35.00;32.80;;;25.90;65.00;;;;;;5133528;27;20448;-71
2021/08/11 09:11:39;;;;;;;37.20;34.40;;;26.00;64.70;;;;;;5129208;27;20462;-71
2021/08/11 09:14:25;;;;;;;32.97;31.07;;;26.00;64.40;;;;;;5132284;27;21023;-71
2021/08/11 09:16:54;;;;;;;34.53;32.57;;;26.10;63.70;;;;;;5123916;27;20479;-71
2021/08/11 09:19:22;;;;;;;36.83;34.60;;;26.10;64.10;;;;;;5134193;27;20534;-71
2021/08/11 09:22:03;;;;;;;34.77;32.63;;;26.10;63.80;;;;;;5119388;27;20444;-71
2021/08/11 09:24:34;;;;;;;35.13;32.80;;;26.10;63.10;;;;;;5122985;27;20440;-71
2021/08/11 09:27:19;;;;;;;35.57;33.40;;;26.10;63.40;;;;;;5128015;27;20507;-71
2021/08/11 09:30:05;;;;;;;37.77;35.57;;;26.20;62.90;;;;;;5134128;27;20454;-71
2021/08/11 09:32:32;;;;;;;37.90;35.83;;;26.30;62.60;;;;;;5132263;27;20536;-71
2021/08/11 09:35:07;;;;;;;35.93;33.63;;;26.30;62.10;;;;;;5131650;27;20475;-71
2021/08/11 09:37:38;;;;;;;38.70;36.50;;;26.20;62.00;;;;;;5131332;27;20506;-71
2021/08/11 09:40:13;;;;;;;32.77;30.97;;;26.10;62.10;;;;;;5120449;27;20450;-71
2021/08/11 09:42:41;;;;;;;37.93;35.67;;;26.20;62.10;;;;;;5130547;27;20459;-72
2021/08/11 09:45:11;;;;;;;32.83;31.03;;;26.20;61.90;;;;;;5127794;27;20443;-71
2021/08/11 09:47:38;;;;;;;39.37;37.30;;;26.30;62.20;;;;;;5130686;27;20468;-71
2021/08/11 09:50:08;;;;;;;38.77;36.57;;;26.40;60.90;;;;;;5132783;27;20494;-71
2021/08/11 09:52:48;;;;;;;33.97;31.87;;;26.40;61.20;;;;;;5131466;27;20976;-72
2021/08/11 09:55:15;;;;;;;36.90;34.80;;;26.60;60.70;;;;;;5129768;27;20503;-76
2021/08/11 09:57:42;;;;;;;36.40;34.20;;;27.00;60.40;;;;;;5128006;27;20524;-75
2021/08/11 10:00:14;;;;;;;37.60;35.37;;;27.30;60.10;;;;;;5131589;27;20448;-74
2021/08/11 10:02:42;;;;;;;41.50;37.83;;;27.50;59.50;;;;;;5125338;27;20502;-74
2021/08/11 10:05:11;;;;;;;36.80;34.40;;;27.70;59.30;;;;;;5128214;27;20455;-73
2021/08/11 10:07:38;;;;;;;35.57;33.57;;;27.90;58.60;;;;;;5129889;27;20479;-74
2021/08/11 10:10:06;;;;;;;33.97;31.93;;;28.00;58.20;;;;;;5116733;27;20451;-73
2021/08/11 10:12:35;;;;;;;36.87;34.80;;;28.20;58.50;;;;;;5120912;27;20455;-71
2021/08/11 10:15:04;;;;;;;33.97;32.00;;;28.30;57.90;;;;;;5132123;27;20471;-72
2021/08/11 10:17:34;;;;;;;35.50;33.50;;;28.40;58.50;;;;;;5123128;27;20474;-72
2021/08/11 10:20:04;;;;;;;32.10;30.20;;;28.20;56.60;;;;;;5122991;27;20479;-72
2021/08/11 10:22:32;;;;;;;33.33;31.43;;;28.00;56.90;;;;;;5130101;27;20513;-75
2021/08/11 10:24:59;;;;;;;36.37;34.37;;;27.90;57.20;;;;;;5130064;27;20455;-75
2021/08/11 10:27:27;;;;;;;38.70;36.50;;;27.70;57.80;;;;;;5128263;27;20589;-73
2021/08/11 10:29:54;;;;;;;35.13;33.10;;;27.60;58.30;;;;;;5119818;27;20475;-73
2021/08/11 10:32:23;;;;;;;35.67;33.67;;;27.80;59.10;;;;;;5121859;27;20462;-74
2021/08/11 10:34:53;;;;;;;38.00;35.70;;;27.90;58.90;;;;;;5129737;27;20487;-73
2021/08/11 10:37:22;;;;;;;41.20;38.80;;;28.10;58.50;;;;;;5129891;27;20483;-74
2021/08/11 10:39:49;;;;;;;35.90;33.80;;;28.30;58.00;;;;;;5132115;27;20456;-73
2021/08/11 10:42:16;;;;;;;35.27;33.07;;;28.20;57.00;;;;;;5121822;27;20454;-73
2021/08/11 10:44:45;;;;;;;37.53;35.23;;;28.30;57.20;;;;;;5124142;27;20452;-75
2021/08/11 10:47:13;;;;;;;35.77;33.70;;;28.30;57.30;;;;;;5130306;27;20480;-75
2021/08/11 10:49:55;;;;;;;38.83;36.63;;;28.30;58.70;;;;;;5128494;27;20456;-75
2021/08/11 10:52:24;;;;;;;36.30;34.07;;;28.30;57.20;;;;;;5130461;27;20496;-74
2021/08/11 10:54:54;;;;;;;37.60;35.40;;;28.20;57.30;;;;;;5130139;27;20833;-77
2021/08/11 10:57:46;;;;;;;35.63;33.53;;;28.10;57.80;;;;;;5128706;27;20547;-75
2021/08/11 11:00:42;;;;;;;33.93;31.73;;;28.00;58.70;;;;;;5131583;27;20508;-74
2021/08/11 11:03:10;;;;;;;38.37;36.27;;;28.00;57.70;;;;;;5128462;27;20478;-74
2021/08/11 11:06:02;;;;;;;36.90;34.40;;;28.10;56.90;;;;;;5131611;27;20848;-76
2021/08/11 11:08:36;;;;;;;36.63;34.50;;;27.90;57.60;;;;;;5130463;27;20570;-75
2021/08/11 11:11:41;;;;;;;37.10;34.90;;;27.60;58.90;;;;;;5125902;27;20842;-73
2021/08/11 11:14:50;;;;;;;36.80;34.33;;;27.50;57.90;;;;;;5121486;27;20446;-74
2021/08/11 11:17:18;;;;;;;37.00;35.00;;;27.50;58.50;;;;;;5118324;27;20983;-75
2021/08/11 11:20:28;;;;;;;34.03;32.03;;;27.60;58.10;;;;;;5131507;27;20514;-75
2021/08/11 11:23:05;;;;;;;33.57;31.67;;;27.70;57.50;;;;;;5129038;27;20475;-74
2021/08/11 11:26:10;;;;;;;35.50;33.40;;;27.80;57.60;;;;;;5129079;27;20956;-74
2021/08/11 11:29:08;;;;;;;35.97;33.77;;;28.10;57.60;;;;;;5121664;27;20936;-74
2021/08/11 11:31:40;;;;;;;38.17;35.90;;;28.30;57.50;;;;;;5119959;27;20945;-76
2021/08/11 11:34:28;;;;;;;37.60;35.40;;;28.50;57.90;;;;;;5122088;27;20480;-75
2021/08/11 11:37:22;;;;;;;36.63;34.13;;;28.60;57.60;;;;;;5124841;27;20480;-76
2021/08/11 11:40:10;;;;;;;31.80;30.00;;;28.70;55.60;;;;;;5125589;27;20487;-77
2021/08/11 11:42:37;;;;;;;36.40;34.07;;;28.60;55.00;;;;;;5125067;27;20486;-76
2021/08/11 11:45:07;;;;;;;34.00;31.40;;;28.60;56.30;;;;;;5129528;27;20539;-77
2021/08/11 11:48:13;;;;;;;37.20;34.70;;;28.70;56.20;;;;;;5123951;27;20480;-74
2021/08/11 11:50:44;;;;;;;33.77;31.47;;;28.60;56.90;;;;;;5123259;27;20539;-75
2021/08/11 11:53:37;;;;;;;36.00;33.80;;;27.80;58.40;;;;;;5129795;27;20955;-75
2021/08/11 11:56:13;;;;;;;36.77;34.30;;;27.40;58.90;;;;;;5118258;27;20474;-75
2021/08/11 11:58:46;;;;;;;34.07;31.87;;;27.00;60.60;;;;;;5128462;27;20535;-76
2021/08/11 12:01:13;;;;;;;36.27;33.93;;;26.80;60.90;;;;;;5124173;27;20448;-76
2021/08/11 12:03:41;;;;;;;36.83;34.53;;;27.10;60.60;;;;;;5128316;27;20952;-76
2021/08/11 12:06:09;;;;;;;34.80;32.67;;;27.30;59.30;;;;;;5128288;27;20535;-74
2021/08/11 12:08:36;;;;;;;38.90;36.57;;;27.40;59.40;;;;;;5127869;27;20466;-74
2021/08/11 12:11:09;;;;;;;39.20;36.80;;;27.70;58.60;;;;;;5121207;27;20468;-75
2021/08/11 12:13:46;;;;;;;38.33;35.93;;;27.80;58.10;;;;;;5127656;28;20485;-73
2021/08/11 12:16:14;;;;;;;37.53;35.37;;;27.90;57.70;;;;;;5122541;28;20507;-75
2021/08/11 12:18:43;;;;;;;35.60;33.57;;;28.20;57.40;;;;;;5128097;28;20447;-74
2021/08/11 12:21:11;;;;;;;39.50;36.87;;;28.40;57.20;;;;;;5128069;28;20455;-74
2021/08/11 12:23:38;;;;;;;36.13;33.83;;;28.20;57.50;;;;;;5128532;28;21254;-74
2021/08/11 12:26:06;;;;;;;35.00;32.80;;;27.90;58.30;;;;;;5121251;28;20453;-73
2021/08/11 12:28:36;;;;;;;38.10;35.70;;;27.50;59.10;;;;;;5124897;28;20472;-76
2021/08/11 12:31:07;;;;;;;39.10;36.80;;;27.50;59.20;;;;;;5126529;28;20479;-76
2021/08/11 12:33:36;;;;;;;39.20;36.80;;;27.70;59.30;;;;;;5123448;28;20448;-75
2021/08/11 12:36:04;;;;;;;34.07;31.77;;;27.90;58.80;;;;;;5125011;28;20478;-73
2021/08/11 12:38:33;;;;;;;35.10;32.77;;;27.90;58.80;;;;;;5128642;28;20483;-74
2021/08/11 12:41:14;;;;;;;35.40;33.30;;;28.20;58.40;;;;;;5120439;27;20460;-73